Time;durP1;ratioP1;P1;durP2;ratioP2;P2;SDS_P1;SDS_P2;PMS_P1;PMS_P2;Temp;Humidity;BMP_temperature;BMP_pressure;BME280_temperature;BME280_humidity;BME280_pressure;Samples;Min_cycle;Max_cycle;Signal;HPM_P1;HPM_P2
2022/01/23 00:00:03;;;;;;;;;;;;;;;;;;346996;28;1036;-76
2022/01/23 00:00:26;;;;;;;;;;;;;;;;;;344336;28;854;-76
2022/01/23 00:00:37;;;;;;;;;;;;;;;;;;344351;28;961;-76
2022/01/23 00:00:47;;;;;;;;;;;;;;;;;;342902;28;1387;-76
2022/01/23 00:01:08;;;;;;;;;;;;;;;;;;341683;29;1339;-76
2022/01/23 00:01:18;;;;;;;;;;;;;;;;;;341613;29;1009;-76
2022/01/23 00:01:35;;;;;;;;;;;;;;;;;;341674;29;879;-76
2022/01/23 00:01:51;;;;;;;;;;;;;;;;;;341677;29;934;-76
2022/01/23 00:02:09;;;;;;;;;;;;;;;;;;341696;29;969;-76
2022/01/23 00:02:25;;;;;;;;;;;;;;;;;;344815;28;1182;-76
2022/01/23 00:02:35;;;;;;;;;;;;;;;;;;347190;28;853;-76
2022/01/23 00:02:47;;;;;;;;;;;;;;;;;;349103;28;1337;-76
2022/01/23 00:03:00;;;;;;;;;;;;;;;;;;349937;28;972;-76
2022/01/23 00:03:17;;;;;;;;;;;;;;;;;;350029;28;1558;-76
2022/01/23 00:03:27;;;;;;;;;;;;;;;;;;350305;28;1685;-76
2022/01/23 00:03:44;;;;;;;;;;;;;;;;;;351248;28;1182;-76
2022/01/23 00:03:55;;;;;;;;;;;;;;;;;;351336;28;996;-76
2022/01/23 00:04:05;;;;;;;;;;;;;;;;;;351370;28;961;-76
2022/01/23 00:04:15;;;;;;;;;;;;;;;;;;351184;28;1003;-76
2022/01/23 00:04:27;;;;;;;;;;;;;;;;;;351347;28;988;-76
2022/01/23 00:04:38;;;;;;;;;;;;;;;;;;351420;28;936;-76
2022/01/23 00:04:48;;;;;;;;;;;;;;;;;;351404;28;798;-76
2022/01/23 00:05:04;;;;;;;;;;;;;;;;;;351366;28;806;-76
2022/01/23 00:05:16;;;;;;;;;;;;;;;;;;350738;28;1383;-76
2022/01/23 00:05:33;;;;;;;;;;;;;;;;;;349916;28;1906;-76
2022/01/23 00:05:45;;;;;;;;;;;;;;;;;;349976;28;976;-76
2022/01/23 00:05:57;;;;;;;;;;;;;;;;;;349950;28;1063;-76
2022/01/23 00:06:07;;;;;;;;;;;;;;;;;;349976;28;952;-76
2022/01/23 00:06:17;;;;;;;;;;;;;;;;;;349989;28;833;-76
2022/01/23 00:06:28;;;;;;;;;;;;;;;;;;349794;28;976;-76
2022/01/23 00:06:38;;;;;;;;;;;;;;;;;;349822;28;1023;-76
2022/01/23 00:06:49;;;;;;;;;;;;;;;;;;349981;28;957;-76
2022/01/23 00:07:03;;;;;;;;;;;;;;;;;;349728;28;1585;-75
2022/01/23 00:07:15;;;;;;;;;;;;;;;;;;349218;28;1688;-76
2022/01/23 00:07:26;;;;;;;;;;;;;;;;;;349685;28;1651;-75
2022/01/23 00:07:38;;;;;;;;;;;;;;;;;;349810;28;1651;-75
2022/01/23 00:07:51;;;;;;;;;;;;;;;;;;349916;28;936;-76
2022/01/23 00:08:02;;;;;;;;;;;;;;;;;;349952;28;940;-76
2022/01/23 00:08:14;;;;;;;;;;;;;;;;;;350033;28;837;-76
2022/01/23 00:08:25;;;;;;;;;;;;;;;;;;350010;28;917;-76
2022/01/23 00:08:35;;;;;;;;;;;;;;;;;;349998;28;925;-76
2022/01/23 00:08:45;;;;;;;;;;;;;;;;;;349940;28;929;-76
2022/01/23 00:08:56;;;;;;;;;;;;;;;;;;349931;28;826;-76
2022/01/23 00:09:07;;;;;;;;;;;;;;;;;;350238;28;1605;-76
2022/01/23 00:09:18;;;;;;;;;;;;;;;;;;350499;28;1724;-76
2022/01/23 00:09:29;;;;;;;;;;;;;;;;;;349966;28;980;-76
2022/01/23 00:09:39;;;;;;;;;;;;;;;;;;349840;28;1007;-76
2022/01/23 00:09:50;;;;;;;;;;;;;;;;;;349983;28;971;-76
2022/01/23 00:10:04;;;;;;;;;;;;;;;;;;349903;28;850;-76
2022/01/23 00:10:15;;;;;;;;;;;;;;;;;;350009;28;833;-76
2022/01/23 00:10:25;;;;;;;;;;;;;;;;;;349927;28;892;-76
2022/01/23 00:10:36;;;;;;;;;;;;;;;;;;350025;28;805;-76
2022/01/23 00:10:46;;;;;;;;;;;;;;;;;;349920;28;1047;-76
2022/01/23 00:10:57;;;;;;;;;;;;;;;;;;349970;28;864;-76
2022/01/23 00:11:07;;;;;;;;;;;;;;;;;;350569;28;1640;-76
2022/01/23 00:11:21;;;;;;;;;;;;;;;;;;351414;28;939;-76
2022/01/23 00:11:35;;;;;;;;;;;;;;;;;;351340;28;894;-76
2022/01/23 00:11:51;;;;;;;;;;;;;;;;;;351291;28;1010;-76
2022/01/23 00:12:06;;;;;;;;;;;;;;;;;;350757;28;1584;-76
2022/01/23 00:12:20;;;;;;;;;;;;;;;;;;350897;28;1712;-76
2022/01/23 00:12:35;;;;;;;;;;;;;;;;;;351373;28;979;-76
2022/01/23 00:12:53;;;;;;;;;;;;;;;;;;351384;28;1050;-76
2022/01/23 00:13:11;;;;;;;;;;;;;;;;;;351276;28;1191;-76
2022/01/23 00:17:22;;;;;;;;;;;;;;;;;;348460;28;1063;-76
2022/01/23 00:17:35;;;;;;;;;;;;;;;;;;348596;28;972;-76
2022/01/23 00:17:46;;;;;;;;;;;;;;;;;;348592;28;999;-76
2022/01/23 00:17:56;;;;;;;;;;;;;;;;;;348367;28;1140;-76
2022/01/23 00:18:07;;;;;;;;;;;;;;;;;;348523;28;1746;-76
2022/01/23 00:18:17;;;;;;;;;;;;;;;;;;349862;28;1036;-76
2022/01/23 00:18:28;;;;;;;;;;;;;;;;;;350006;28;864;-76
2022/01/23 00:18:39;;;;;;;;;;;;;;;;;;349941;28;806;-76
2022/01/23 00:18:49;;;;;;;;;;;;;;;;;;350092;28;864;-76
2022/01/23 00:18:59;;;;;;;;;;;;;;;;;;349979;28;893;-76
2022/01/23 00:19:11;;;;;;;;;;;;;;;;;;349856;28;1660;-76
2022/01/23 00:19:21;;;;;;;;;;;;;;;;;;350622;28;1753;-76
2022/01/23 00:19:31;;;;;;;;;;;;;;;;;;351382;28;856;-76
2022/01/23 00:19:42;;;;;;;;;;;;;;;;;;351381;28;852;-76
2022/01/23 00:19:56;;;;;;;;;;;;;;;;;;351346;28;1035;-76
2022/01/23 00:20:08;;;;;;;;;;;;;;;;;;351292;28;924;-76
2022/01/23 00:20:18;;;;;;;;;;;;;;;;;;351347;28;1069;-76
2022/01/23 00:20:28;;;;;;;;;;;;;;;;;;351377;28;896;-76
2022/01/23 00:20:38;;;;;;;;;;;;;;;;;;351026;28;1529;-76
2022/01/23 00:20:49;;;;;;;;;;;;;;;;;;351349;28;956;-76
2022/01/23 00:20:59;;;;;;;;;;;;;;;;;;351342;28;975;-76
2022/01/23 00:21:10;;;;;;;;;;;;;;;;;;351383;28;896;-76
2022/01/23 00:21:20;;;;;;;;;;;;;;;;;;350392;28;1635;-76
2022/01/23 00:21:33;;;;;;;;;;;;;;;;;;349989;28;849;-76
2022/01/23 00:21:45;;;;;;;;;;;;;;;;;;350013;28;836;-76
2022/01/23 00:21:58;;;;;;;;;;;;;;;;;;349799;28;1746;-76
2022/01/23 00:22:10;;;;;;;;;;;;;;;;;;349960;28;860;-76
2022/01/23 00:22:23;;;;;;;;;;;;;;;;;;349961;28;995;-76
2022/01/23 00:22:48;;;;;;;;;;;;;;;;;;349997;28;1708;-76
2022/01/23 00:23:02;;;;;;;;;;;;;;;;;;348600;28;916;-76
2022/01/23 00:30:33;;;;;;;;;;;;;;;;;;349668;28;1538;-76
2022/01/23 00:30:45;;;;;;;;;;;;;;;;;;351352;28;948;-76
2022/01/23 00:30:58;;;;;;;;;;;;;;;;;;351421;28;778;-76
2022/01/23 00:31:09;;;;;;;;;;;;;;;;;;351393;28;805;-76
2022/01/23 00:31:19;;;;;;;;;;;;;;;;;;351319;28;988;-76
2022/01/23 00:31:30;;;;;;;;;;;;;;;;;;351274;28;933;-76
2022/01/23 00:31:41;;;;;;;;;;;;;;;;;;351399;28;924;-76
2022/01/23 00:31:51;;;;;;;;;;;;;;;;;;349681;28;1571;-76
2022/01/23 00:32:02;;;;;;;;;;;;;;;;;;349966;28;921;-76
2022/01/23 00:32:12;;;;;;;;;;;;;;;;;;349851;28;1653;-76
2022/01/23 00:32:22;;;;;;;;;;;;;;;;;;350182;28;1669;-76
2022/01/23 00:32:32;;;;;;;;;;;;;;;;;;351029;28;1764;-76
2022/01/23 00:32:43;;;;;;;;;;;;;;;;;;351332;28;1023;-76
2022/01/23 00:32:54;;;;;;;;;;;;;;;;;;350955;28;1814;-76
2022/01/23 00:33:05;;;;;;;;;;;;;;;;;;349980;28;920;-76
2022/01/23 00:33:16;;;;;;;;;;;;;;;;;;349946;28;971;-76
2022/01/23 00:33:26;;;;;;;;;;;;;;;;;;349960;28;917;-76
2022/01/23 00:33:37;;;;;;;;;;;;;;;;;;349974;28;861;-75
2022/01/23 00:33:47;;;;;;;;;;;;;;;;;;349777;28;1676;-76
2022/01/23 00:33:58;;;;;;;;;;;;;;;;;;349981;28;834;-76
2022/01/23 00:34:09;;;;;;;;;;;;;;;;;;349920;28;872;-76
2022/01/23 00:34:19;;;;;;;;;;;;;;;;;;349801;28;1003;-76
2022/01/23 00:34:29;;;;;;;;;;;;;;;;;;349638;28;1641;-76
2022/01/23 00:34:40;;;;;;;;;;;;;;;;;;350139;28;1790;-76
2022/01/23 00:34:50;;;;;;;;;;;;;;;;;;350997;28;1767;-76
2022/01/23 00:35:00;;;;;;;;;;;;;;;;;;351275;28;881;-76
2022/01/23 00:35:10;;;;;;;;;;;;;;;;;;351284;28;1053;-76
2022/01/23 00:35:21;;;;;;;;;;;;;;;;;;351390;28;976;-76
2022/01/23 00:35:32;;;;;;;;;;;;;;;;;;351233;28;964;-76
2022/01/23 00:35:43;;;;;;;;;;;;;;;;;;351014;28;1679;-76
2022/01/23 00:35:54;;;;;;;;;;;;;;;;;;349979;28;944;-76
2022/01/23 00:36:04;;;;;;;;;;;;;;;;;;349881;28;790;-76
2022/01/23 00:36:14;;;;;;;;;;;;;;;;;;349904;28;1039;-76
2022/01/23 00:36:26;;;;;;;;;;;;;;;;;;349942;28;941;-76
2022/01/23 00:36:36;;;;;;;;;;;;;;;;;;349946;28;932;-76
2022/01/23 00:36:46;;;;;;;;;;;;;;;;;;349937;28;857;-76
2022/01/23 00:36:56;;;;;;;;;;;;;;;;;;349817;28;1126;-76
2022/01/23 00:37:07;;;;;;;;;;;;;;;;;;349914;28;940;-76
2022/01/23 00:37:19;;;;;;;;;;;;;;;;;;350123;28;1612;-76
2022/01/23 00:37:29;;;;;;;;;;;;;;;;;;349440;28;1513;-76
2022/01/23 00:37:39;;;;;;;;;;;;;;;;;;349547;28;1030;-76
2022/01/23 00:37:50;;;;;;;;;;;;;;;;;;349608;28;1492;-76
2022/01/23 00:38:00;;;;;;;;;;;;;;;;;;349761;28;1429;-76
2022/01/23 00:38:11;;;;;;;;;;;;;;;;;;349815;28;932;-76
2022/01/23 00:38:22;;;;;;;;;;;;;;;;;;349845;28;971;-76
2022/01/23 00:38:32;;;;;;;;;;;;;;;;;;349820;28;928;-76
2022/01/23 00:38:43;;;;;;;;;;;;;;;;;;349820;28;879;-76
2022/01/23 00:38:53;;;;;;;;;;;;;;;;;;349798;28;968;-76
2022/01/23 00:39:04;;;;;;;;;;;;;;;;;;349871;28;766;-76
2022/01/23 00:39:14;;;;;;;;;;;;;;;;;;349827;28;769;-76
2022/01/23 00:39:24;;;;;;;;;;;;;;;;;;349382;28;1587;-75
2022/01/23 00:39:34;;;;;;;;;;;;;;;;;;349889;28;909;-76
2022/01/23 00:39:45;;;;;;;;;;;;;;;;;;349960;28;972;-76
2022/01/23 00:39:55;;;;;;;;;;;;;;;;;;350133;28;1581;-75
2022/01/23 00:40:05;;;;;;;;;;;;;;;;;;350617;28;1861;-76
2022/01/23 00:40:16;;;;;;;;;;;;;;;;;;349955;28;988;-76
2022/01/23 00:40:28;;;;;;;;;;;;;;;;;;349986;28;908;-76
2022/01/23 00:40:39;;;;;;;;;;;;;;;;;;349973;28;932;-76
2022/01/23 00:40:50;;;;;;;;;;;;;;;;;;349932;28;893;-76
2022/01/23 00:41:00;;;;;;;;;;;;;;;;;;349750;28;871;-76
2022/01/23 00:41:10;;;;;;;;;;;;;;;;;;349956;28;920;-76
2022/01/23 00:41:21;;;;;;;;;;;;;;;;;;349939;28;937;-76
2022/01/23 00:41:31;;;;;;;;;;;;;;;;;;349952;28;834;-76
2022/01/23 00:41:41;;;;;;;;;;;;;;;;;;349944;28;810;-76
2022/01/23 00:41:51;;;;;;;;;;;;;;;;;;349732;28;1144;-76
2022/01/23 00:42:02;;;;;;;;;;;;;;;;;;349968;28;913;-76
2022/01/23 00:42:12;;;;;;;;;;;;;;;;;;350073;28;1652;-76
2022/01/23 00:42:22;;;;;;;;;;;;;;;;;;351365;28;1017;-76
2022/01/23 00:42:34;;;;;;;;;;;;;;;;;;351408;28;903;-76
2022/01/23 00:42:45;;;;;;;;;;;;;;;;;;351305;28;833;-76
2022/01/23 00:42:57;;;;;;;;;;;;;;;;;;351329;28;1051;-76
2022/01/23 00:43:26;;;;;;;;;;;;;;;;;;351285;28;920;-76
2022/01/23 00:43:40;;;;;;;;;;;;;;;;;;351314;28;883;-76
2022/01/23 00:43:52;;;;;;;;;;;;;;;;;;351395;28;824;-76
2022/01/23 00:44:03;;;;;;;;;;;;;;;;;;351468;28;841;-76
2022/01/23 00:44:13;;;;;;;;;;;;;;;;;;351000;28;1667;-76
2022/01/23 00:44:23;;;;;;;;;;;;;;;;;;351360;28;877;-76
2022/01/23 00:44:36;;;;;;;;;;;;;;;;;;351320;28;952;-76
2022/01/23 00:44:52;;;;;;;;;;;;;;;;;;351318;28;984;-76
2022/01/23 00:45:34;;;;;;;;;;;;;;;;;;354030;28;1963;-76
2022/01/23 00:45:48;;;;;;;;;;;;;;;;;;354155;28;930;-76
2022/01/23 00:46:11;;;;;;;;;;;;;;;;;;354172;28;794;-76
2022/01/23 00:46:29;;;;;;;;;;;;;;;;;;352861;28;1568;-76
2022/01/23 00:46:48;;;;;;;;;;;;;;;;;;351362;28;770;-76
2022/01/23 00:46:58;;;;;;;;;;;;;;;;;;351367;28;809;-76
2022/01/23 00:47:12;;;;;;;;;;;;;;;;;;351265;28;888;-76
2022/01/23 00:47:22;;;;;;;;;;;;;;;;;;351328;28;976;-76
2022/01/23 00:47:33;;;;;;;;;;;;;;;;;;351347;28;896;-76
2022/01/23 00:47:44;;;;;;;;;;;;;;;;;;351351;28;862;-76
2022/01/23 00:47:58;;;;;;;;;;;;;;;;;;351365;28;865;-76
2022/01/23 00:48:09;;;;;;;;;;;;;;;;;;351229;28;1048;-76
2022/01/23 00:48:25;;;;;;;;;;;;;;;;;;352433;28;1597;-76
2022/01/23 00:48:39;;;;;;;;;;;;;;;;;;352761;28;928;-76
2022/01/23 00:49:24;;;;;;;;;;;;;;;;;;352713;28;895;-76
2022/01/23 00:49:34;;;;;;;;;;;;;;;;;;352741;28;790;-76
2022/01/23 00:49:45;;;;;;;;;;;;;;;;;;352716;28;913;-76
2022/01/23 00:49:55;;;;;;;;;;;;;;;;;;352687;28;912;-76
2022/01/23 00:50:05;;;;;;;;;;;;;;;;;;352713;28;968;-76
2022/01/23 00:50:16;;;;;;;;;;;;;;;;;;352744;28;837;-76
2022/01/23 00:50:26;;;;;;;;;;;;;;;;;;352725;28;1008;-76
2022/01/23 00:50:41;;;;;;;;;;;;;;;;;;352333;28;1726;-76
2022/01/23 00:50:51;;;;;;;;;;;;;;;;;;351033;28;1003;-76
2022/01/23 00:51:02;;;;;;;;;;;;;;;;;;351370;28;849;-76
2022/01/23 00:51:12;;;;;;;;;;;;;;;;;;351330;28;908;-76
2022/01/23 00:51:22;;;;;;;;;;;;;;;;;;351336;28;1589;-75
2022/01/23 00:51:34;;;;;;;;;;;;;;;;;;352754;28;1811;-76
2022/01/23 00:51:45;;;;;;;;;;;;;;;;;;351194;28;1143;-76
2022/01/23 00:51:56;;;;;;;;;;;;;;;;;;351299;28;944;-76
2022/01/23 00:52:06;;;;;;;;;;;;;;;;;;352921;28;1752;-76
2022/01/23 00:52:18;;;;;;;;;;;;;;;;;;354130;28;903;-76
2022/01/23 00:52:28;;;;;;;;;;;;;;;;;;353818;28;1595;-76
2022/01/23 00:52:38;;;;;;;;;;;;;;;;;;352828;28;1715;-76
2022/01/23 00:52:49;;;;;;;;;;;;;;;;;;351356;28;1036;-76
2022/01/23 00:53:00;;;;;;;;;;;;;;;;;;351296;28;833;-76
2022/01/23 00:53:11;;;;;;;;;;;;;;;;;;351383;28;766;-76
2022/01/23 00:53:21;;;;;;;;;;;;;;;;;;351327;28;972;-76
2022/01/23 00:53:31;;;;;;;;;;;;;;;;;;351300;28;1011;-76
2022/01/23 00:53:41;;;;;;;;;;;;;;;;;;351336;28;1621;-76
2022/01/23 00:53:52;;;;;;;;;;;;;;;;;;351235;28;1021;-76
2022/01/23 00:54:03;;;;;;;;;;;;;;;;;;351310;28;929;-76
2022/01/23 00:54:14;;;;;;;;;;;;;;;;;;351329;28;899;-76
2022/01/23 00:54:25;;;;;;;;;;;;;;;;;;351334;28;913;-76
2022/01/23 00:54:35;;;;;;;;;;;;;;;;;;351280;28;798;-77
2022/01/23 00:54:45;;;;;;;;;;;;;;;;;;351347;28;964;-76
2022/01/23 00:54:55;;;;;;;;;;;;;;;;;;351306;28;1025;-76
2022/01/23 00:55:06;;;;;;;;;;;;;;;;;;351331;28;932;-76
2022/01/23 00:55:16;;;;;;;;;;;;;;;;;;351712;28;1265;-76
2022/01/23 00:55:26;;;;;;;;;;;;;;;;;;352709;28;932;-76
2022/01/23 00:55:37;;;;;;;;;;;;;;;;;;352732;28;868;-76
2022/01/23 00:55:47;;;;;;;;;;;;;;;;;;352744;28;908;-76
2022/01/23 00:55:58;;;;;;;;;;;;;;;;;;352642;28;913;-76
2022/01/23 00:56:09;;;;;;;;;;;;;;;;;;352721;28;980;-76
2022/01/23 00:56:19;;;;;;;;;;;;;;;;;;352752;28;901;-75
2022/01/23 00:56:29;;;;;;;;;;;;;;;;;;352777;28;631;-76
2022/01/23 00:56:40;;;;;;;;;;;;;;;;;;352732;28;975;-76
2022/01/23 00:56:50;;;;;;;;;;;;;;;;;;352739;28;817;-76
2022/01/23 00:57:00;;;;;;;;;;;;;;;;;;352711;28;979;-76
2022/01/23 00:57:11;;;;;;;;;;;;;;;;;;352899;28;1561;-75
2022/01/23 00:57:21;;;;;;;;;;;;;;;;;;353191;28;1787;-76
2022/01/23 00:57:33;;;;;;;;;;;;;;;;;;354071;28;1007;-76
2022/01/23 00:57:43;;;;;;;;;;;;;;;;;;354129;28;837;-76
2022/01/23 00:57:54;;;;;;;;;;;;;;;;;;354100;28;856;-76
2022/01/23 00:58:04;;;;;;;;;;;;;;;;;;354050;28;872;-76
2022/01/23 00:58:14;;;;;;;;;;;;;;;;;;354138;28;963;-76
2022/01/23 00:58:25;;;;;;;;;;;;;;;;;;354155;28;920;-76
2022/01/23 00:58:35;;;;;;;;;;;;;;;;;;354148;28;864;-76
2022/01/23 00:58:45;;;;;;;;;;;;;;;;;;354107;28;999;-76
2022/01/23 00:58:56;;;;;;;;;;;;;;;;;;354142;28;864;-76
2022/01/23 00:59:06;;;;;;;;;;;;;;;;;;354120;28;1027;-76
2022/01/23 00:59:16;;;;;;;;;;;;;;;;;;353558;28;1612;-76
2022/01/23 00:59:26;;;;;;;;;;;;;;;;;;354104;28;986;-76
2022/01/23 00:59:37;;;;;;;;;;;;;;;;;;353937;28;991;-76
2022/01/23 00:59:47;;;;;;;;;;;;;;;;;;354107;28;1000;-76
2022/01/23 00:59:57;;;;;;;;;;;;;;;;;;354121;28;963;-76
2022/01/23 01:00:08;;;;;;;;;;;;;;;;;;354119;28;920;-76
2022/01/23 01:00:19;;;;;;;;;;;;;;;;;;354078;28;924;-76
2022/01/23 01:00:29;;;;;;;;;;;;;;;;;;354142;28;936;-76
2022/01/23 01:00:41;;;;;;;;;;;;;;;;;;354136;28;1048;-76
2022/01/23 01:00:51;;;;;;;;;;;;;;;;;;354143;28;903;-76
2022/01/23 01:01:01;;;;;;;;;;;;;;;;;;354092;28;790;-76
2022/01/23 01:01:12;;;;;;;;;;;;;;;;;;354160;28;845;-76
2022/01/23 01:01:23;;;;;;;;;;;;;;;;;;353392;28;1599;-75
2022/01/23 01:01:33;;;;;;;;;;;;;;;;;;352686;28;779;-76
2022/01/23 01:01:44;;;;;;;;;;;;;;;;;;352693;28;916;-76
2022/01/23 01:01:54;;;;;;;;;;;;;;;;;;352719;28;902;-76
2022/01/23 01:02:04;;;;;;;;;;;;;;;;;;352707;28;912;-76
2022/01/23 01:02:14;;;;;;;;;;;;;;;;;;352585;28;1010;-76
2022/01/23 01:02:24;;;;;;;;;;;;;;;;;;352743;28;925;-76
2022/01/23 01:02:35;;;;;;;;;;;;;;;;;;352731;28;940;-76
2022/01/23 01:02:45;;;;;;;;;;;;;;;;;;352612;28;1241;-76
2022/01/23 01:02:56;;;;;;;;;;;;;;;;;;352536;28;1011;-76
2022/01/23 01:03:06;;;;;;;;;;;;;;;;;;352655;28;932;-76
2022/01/23 01:03:16;;;;;;;;;;;;;;;;;;352720;28;1044;-76
2022/01/23 01:03:28;;;;;;;;;;;;;;;;;;353223;28;1433;-76
2022/01/23 01:03:39;;;;;;;;;;;;;;;;;;352880;28;1810;-76
2022/01/23 01:03:49;;;;;;;;;;;;;;;;;;352634;28;932;-76
2022/01/23 01:03:59;;;;;;;;;;;;;;;;;;352765;28;900;-76
2022/01/23 01:04:09;;;;;;;;;;;;;;;;;;352659;28;1099;-76
2022/01/23 01:04:20;;;;;;;;;;;;;;;;;;352718;28;787;-76
2022/01/23 01:04:30;;;;;;;;;;;;;;;;;;352643;28;1035;-76
2022/01/23 01:04:40;;;;;;;;;;;;;;;;;;352596;28;1007;-76
2022/01/23 01:04:50;;;;;;;;;;;;;;;;;;352773;28;984;-76
2022/01/23 01:05:01;;;;;;;;;;;;;;;;;;352691;28;841;-76
2022/01/23 01:05:11;;;;;;;;;;;;;;;;;;352737;28;785;-76
2022/01/23 01:05:21;;;;;;;;;;;;;;;;;;352504;28;1456;-76
2022/01/23 01:05:32;;;;;;;;;;;;;;;;;;352660;28;1980;-76
2022/01/23 01:05:42;;;;;;;;;;;;;;;;;;352727;28;932;-76
2022/01/23 01:05:52;;;;;;;;;;;;;;;;;;352705;28;920;-76
2022/01/23 01:06:03;;;;;;;;;;;;;;;;;;352504;28;1011;-76
2022/01/23 01:06:13;;;;;;;;;;;;;;;;;;352687;28;883;-76
2022/01/23 01:06:24;;;;;;;;;;;;;;;;;;352714;28;892;-76
2022/01/23 01:06:34;;;;;;;;;;;;;;;;;;352701;28;979;-76
2022/01/23 01:06:44;;;;;;;;;;;;;;;;;;352740;28;933;-76
2022/01/23 01:06:54;;;;;;;;;;;;;;;;;;352692;28;1008;-76
2022/01/23 01:07:05;;;;;;;;;;;;;;;;;;352625;28;944;-76
2022/01/23 01:07:15;;;;;;;;;;;;;;;;;;352674;28;1726;-76
2022/01/23 01:07:25;;;;;;;;;;;;;;;;;;352701;28;1731;-75
2022/01/23 01:07:35;;;;;;;;;;;;;;;;;;352628;28;1546;-76
2022/01/23 01:07:46;;;;;;;;;;;;;;;;;;352665;28;1518;-76
2022/01/23 01:07:58;;;;;;;;;;;;;;;;;;352616;28;952;-76
2022/01/23 01:08:08;;;;;;;;;;;;;;;;;;352642;28;762;-76
2022/01/23 01:08:18;;;;;;;;;;;;;;;;;;352736;28;888;-76
2022/01/23 01:08:28;;;;;;;;;;;;;;;;;;352771;28;813;-76
2022/01/23 01:08:40;;;;;;;;;;;;;;;;;;352778;28;798;-76
2022/01/23 01:08:53;;;;;;;;;;;;;;;;;;352720;28;821;-76
2022/01/23 01:09:06;;;;;;;;;;;;;;;;;;352732;28;1007;-76
2022/01/23 01:09:17;;;;;;;;;;;;;;;;;;352597;28;1695;-76
2022/01/23 01:09:29;;;;;;;;;;;;;;;;;;353515;28;1800;-76
2022/01/23 01:09:40;;;;;;;;;;;;;;;;;;351271;28;762;-76
2022/01/23 01:09:53;;;;;;;;;;;;;;;;;;351304;28;936;-76
2022/01/23 01:10:11;;;;;;;;;;;;;;;;;;351203;28;861;-76
2022/01/23 01:10:32;;;;;;;;;;;;;;;;;;351259;28;988;-76
2022/01/23 01:10:55;;;;;;;;;;;;;;;;;;351296;28;948;-76
2022/01/23 01:11:42;;;;;;;;;;;;;;;;;;351295;28;810;-76
2022/01/23 01:11:56;;;;;;;;;;;;;;;;;;351206;28;940;-76
2022/01/23 01:12:09;;;;;;;;;;;;;;;;;;353611;27;1755;-76
2022/01/23 01:12:25;;;;;;;;;;;;;;;;;;352574;28;1048;-76
2022/01/23 01:12:42;;;;;;;;;;;;;;;;;;352861;28;1727;-76
2022/01/23 01:12:58;;;;;;;;;;;;;;;;;;354086;28;932;-76
2022/01/23 01:13:11;;;;;;;;;;;;;;;;;;354162;28;967;-76
2022/01/23 01:13:24;;;;;;;;;;;;;;;;;;354052;28;1070;-76
2022/01/23 01:14:25;;;;;;;;;;;;;;;;;;354121;28;991;-76
2022/01/23 01:16:12;;;;;;;;;;;;;;;;;;351294;28;968;-76
2022/01/23 01:16:50;;;;;;;;;;;;;;;;;;351235;28;755;-76
2022/01/23 01:17:05;;;;;;;;;;;;;;;;;;351156;28;1002;-76
2022/01/23 01:17:24;;;;;;;;;;;;;;;;;;351316;28;1612;-76
2022/01/23 01:30:08;;;;;;;;;;;;;;;;;;353105;28;1692;-76
2022/01/23 01:30:17;;;;;;;;;;;;;;;;;;352663;28;995;-76
2022/01/23 01:30:23;;;;;;;;;;;;;;;;;;352906;28;1700;-76
2022/01/23 01:31:19;;;;;;;;;;;;;;;;;;351744;28;1660;-75
2022/01/23 01:31:51;;;;;;;;;;;;;;;;;;354116;28;860;-76
2022/01/23 01:32:05;;;;;;;;;;;;;;;;;;352678;28;1723;-76
2022/01/23 01:32:23;;;;;;;;;;;;;;;;;;352687;28;983;-76
2022/01/23 01:33:03;;;;;;;;;;;;;;;;;;352710;28;967;-76
2022/01/23 01:34:18;;;;;;;;;;;;;;;;;;352575;28;1573;-76
2022/01/23 01:34:37;;;;;;;;;;;;;;;;;;350894;28;1484;-76
2022/01/23 01:35:01;;;;;;;;;;;;;;;;;;351504;28;1747;-76
2022/01/23 01:36:13;;;;;;;;;;;;;;;;;;345596;28;826;-76
2022/01/23 01:36:50;;;;;;;;;;;;;;;;;;345584;28;1537;-76
2022/01/23 01:37:01;;;;;;;;;;;;;;;;;;346591;28;1799;-76
2022/01/23 01:37:12;;;;;;;;;;;;;;;;;;346932;28;767;-76
2022/01/23 01:37:22;;;;;;;;;;;;;;;;;;345636;28;917;-76
2022/01/23 01:37:33;;;;;;;;;;;;;;;;;;344398;28;1562;-76
2022/01/23 01:37:43;;;;;;;;;;;;;;;;;;344227;28;969;-76
2022/01/23 01:37:53;;;;;;;;;;;;;;;;;;344339;28;822;-76
2022/01/23 01:38:04;;;;;;;;;;;;;;;;;;342973;28;993;-76
2022/01/23 01:38:14;;;;;;;;;;;;;;;;;;342972;28;934;-76
2022/01/23 01:38:24;;;;;;;;;;;;;;;;;;342958;28;905;-76
2022/01/23 01:38:35;;;;;;;;;;;;;;;;;;342843;28;890;-76
2022/01/23 01:38:46;;;;;;;;;;;;;;;;;;343307;28;1621;-75
2022/01/23 01:38:56;;;;;;;;;;;;;;;;;;344305;28;972;-76
2022/01/23 01:39:07;;;;;;;;;;;;;;;;;;344360;28;791;-76
2022/01/23 01:39:19;;;;;;;;;;;;;;;;;;343983;28;1766;-76
2022/01/23 01:39:30;;;;;;;;;;;;;;;;;;344244;28;973;-76
2022/01/23 01:39:40;;;;;;;;;;;;;;;;;;344282;28;1004;-76
2022/01/23 01:39:50;;;;;;;;;;;;;;;;;;344274;28;870;-76
2022/01/23 01:40:00;;;;;;;;;;;;;;;;;;345067;28;803;-76
2022/01/23 01:40:11;;;;;;;;;;;;;;;;;;345622;28;965;-76
2022/01/23 01:40:22;;;;;;;;;;;;;;;;;;345615;28;819;-76
2022/01/23 01:40:32;;;;;;;;;;;;;;;;;;345614;28;1017;-76
2022/01/23 01:40:42;;;;;;;;;;;;;;;;;;345669;28;782;-76
2022/01/23 01:40:53;;;;;;;;;;;;;;;;;;345609;28;1022;-76
2022/01/23 01:41:03;;;;;;;;;;;;;;;;;;345483;28;1143;-75
2022/01/23 01:41:14;;;;;;;;;;;;;;;;;;345646;28;922;-76
2022/01/23 01:41:24;;;;;;;;;;;;;;;;;;345451;28;1345;-76
2022/01/23 01:41:39;;;;;;;;;;;;;;;;;;345652;28;868;-76
2022/01/23 01:41:50;;;;;;;;;;;;;;;;;;345601;28;878;-76
2022/01/23 01:42:01;;;;;;;;;;;;;;;;;;345909;28;1608;-76
2022/01/23 01:42:11;;;;;;;;;;;;;;;;;;352954;28;1676;-76
2022/01/23 01:42:21;;;;;;;;;;;;;;;;;;353700;28;1759;-76
2022/01/23 01:42:32;;;;;;;;;;;;;;;;;;354074;28;880;-76
2022/01/23 01:42:43;;;;;;;;;;;;;;;;;;354154;28;907;-76
2022/01/23 01:42:54;;;;;;;;;;;;;;;;;;354115;28;873;-76
2022/01/23 01:43:04;;;;;;;;;;;;;;;;;;353890;28;1159;-76
2022/01/23 01:43:15;;;;;;;;;;;;;;;;;;354055;28;991;-76
2022/01/23 01:43:25;;;;;;;;;;;;;;;;;;354092;28;864;-76
2022/01/23 01:43:35;;;;;;;;;;;;;;;;;;354181;28;802;-76
2022/01/23 01:43:46;;;;;;;;;;;;;;;;;;353905;28;1117;-76
2022/01/23 01:43:57;;;;;;;;;;;;;;;;;;354035;28;872;-76
2022/01/23 01:44:08;;;;;;;;;;;;;;;;;;354154;28;940;-76
2022/01/23 01:44:19;;;;;;;;;;;;;;;;;;353987;28;1091;-76
2022/01/23 01:44:30;;;;;;;;;;;;;;;;;;354085;28;1007;-76
2022/01/23 01:44:40;;;;;;;;;;;;;;;;;;354035;28;860;-76
2022/01/23 01:44:50;;;;;;;;;;;;;;;;;;354158;28;856;-75
2022/01/23 01:45:01;;;;;;;;;;;;;;;;;;353743;28;1640;-76
2022/01/23 01:45:12;;;;;;;;;;;;;;;;;;353937;28;1331;-76
2022/01/23 01:45:23;;;;;;;;;;;;;;;;;;353999;28;1083;-76
2022/01/23 01:45:34;;;;;;;;;;;;;;;;;;354038;28;1906;-76
2022/01/23 01:45:45;;;;;;;;;;;;;;;;;;354114;28;966;-76
2022/01/23 01:45:55;;;;;;;;;;;;;;;;;;354064;28;936;-76
2022/01/23 01:46:05;;;;;;;;;;;;;;;;;;354035;28;1024;-76
2022/01/23 01:46:15;;;;;;;;;;;;;;;;;;354126;28;809;-76
2022/01/23 01:46:26;;;;;;;;;;;;;;;;;;354119;28;936;-76
2022/01/23 01:46:36;;;;;;;;;;;;;;;;;;354101;28;909;-76
2022/01/23 01:46:46;;;;;;;;;;;;;;;;;;353995;28;995;-76
2022/01/23 01:46:57;;;;;;;;;;;;;;;;;;354068;28;1057;-76
2022/01/23 01:47:07;;;;;;;;;;;;;;;;;;352907;28;1639;-76
2022/01/23 01:47:17;;;;;;;;;;;;;;;;;;353617;28;1772;-75
2022/01/23 01:47:28;;;;;;;;;;;;;;;;;;353434;28;1564;-75
2022/01/23 01:47:46;;;;;;;;;;;;;;;;;;354072;28;849;-76
2022/01/23 01:47:57;;;;;;;;;;;;;;;;;;354103;28;766;-76
2022/01/23 01:48:08;;;;;;;;;;;;;;;;;;353398;28;1572;-75
2022/01/23 01:48:23;;;;;;;;;;;;;;;;;;353752;28;1501;-76
2022/01/23 01:48:33;;;;;;;;;;;;;;;;;;354085;28;991;-76
2022/01/23 01:48:44;;;;;;;;;;;;;;;;;;354119;28;984;-76
2022/01/23 01:48:55;;;;;;;;;;;;;;;;;;354073;28;849;-76
2022/01/23 01:49:05;;;;;;;;;;;;;;;;;;354090;28;844;-76
2022/01/23 01:49:26;;;;;;;;;;;;;;;;;;353984;28;1006;-76
2022/01/23 01:49:36;;;;;;;;;;;;;;;;;;353997;28;1013;-76
2022/01/23 01:49:47;;;;;;;;;;;;;;;;;;354096;28;983;-76
2022/01/23 01:49:57;;;;;;;;;;;;;;;;;;354011;28;1224;-76
2022/01/23 01:50:07;;;;;;;;;;;;;;;;;;352497;28;1584;-76
2022/01/23 01:50:18;;;;;;;;;;;;;;;;;;351472;28;1724;-76
2022/01/23 01:50:29;;;;;;;;;;;;;;;;;;354101;28;1185;-76
2022/01/23 01:50:44;;;;;;;;;;;;;;;;;;354137;28;917;-76
2022/01/23 01:50:56;;;;;;;;;;;;;;;;;;351305;28;786;-76
2022/01/23 01:51:11;;;;;;;;;;;;;;;;;;351290;28;948;-76
2022/01/23 01:51:23;;;;;;;;;;;;;;;;;;351234;28;940;-76
2022/01/23 01:51:34;;;;;;;;;;;;;;;;;;351282;28;976;-76
2022/01/23 01:51:45;;;;;;;;;;;;;;;;;;351228;28;992;-76
2022/01/23 01:51:56;;;;;;;;;;;;;;;;;;351262;28;913;-76
2022/01/23 01:52:07;;;;;;;;;;;;;;;;;;351519;28;1769;-76
2022/01/23 01:52:17;;;;;;;;;;;;;;;;;;352692;28;1025;-76
2022/01/23 01:52:27;;;;;;;;;;;;;;;;;;352651;28;912;-76
2022/01/23 01:52:38;;;;;;;;;;;;;;;;;;352695;28;964;-76
2022/01/23 01:52:48;;;;;;;;;;;;;;;;;;352495;28;1140;-76
2022/01/23 01:52:58;;;;;;;;;;;;;;;;;;352742;28;944;-76
2022/01/23 01:53:10;;;;;;;;;;;;;;;;;;352830;28;917;-76
2022/01/23 01:53:21;;;;;;;;;;;;;;;;;;352788;28;1734;-76
2022/01/23 01:53:32;;;;;;;;;;;;;;;;;;352948;28;833;-76
2022/01/23 01:53:57;;;;;;;;;;;;;;;;;;352908;28;911;-76
2022/01/23 01:54:14;;;;;;;;;;;;;;;;;;352918;28;991;-76
2022/01/23 01:54:28;;;;;;;;;;;;;;;;;;352958;28;960;-76
2022/01/23 01:54:38;;;;;;;;;;;;;;;;;;352993;28;881;-76
2022/01/23 01:54:58;;;;;;;;;;;;;;;;;;352725;28;1044;-76
2022/01/23 01:55:11;;;;;;;;;;;;;;;;;;352927;28;979;-76